Coral Princess — ZCDF4 — position and weather

sailwx.info

Track history (hours):
 
Tides and Currents Weather Stations Pressure Air Temp Water Temp Dewpoint Dewpoint Depression Visibility Wind Speed Wind Dir Waves Ship Positions

Coral Princess

Operator: Princess Cruises

Last reported at 2019-Jan-21 22:31 UTC. Time now 2019-Jan-24 06:14 UTC.
Position N 26°16' W 079°26'.

Type: Passenger vessel. MMSI: 310376000.

Date/timePositionNaut miles runAvg speedWind from/ knotsBaromVisibWave heightAir tempDewpointWater temp
2019-Jan-21 22:31N 26°16' W 079°26'019.8
2019-Jan-21 22:30N 26°16' W 079°27'1020.6
2019-Jan-21 22:00N 26°13' W 079°37'1121.4
2019-Jan-21 21:30N 26°09' W 079°49'1121.3
2019-Jan-21 21:00N 26°06' W 079°60'612.0
2019-Jan-21 20:30N 26°06' W 080°07'1 1.2
2019-Jan-21 20:00N 26°06' W 080°07'0 0.0
2019-Jan-21 19:30N 26°06' W 080°07'0 0.0
2019-Jan-21 19:00N 26°06' W 080°07'0 0.0
2019-Jan-21 18:30N 26°06' W 080°07'0 0.0
2019-Jan-21 18:00N 26°06' W 080°07'0 0.0
2019-Jan-21 17:30N 26°06' W 080°07'0 0.0
2019-Jan-21 17:00N 26°06' W 080°07'0 0.0
2019-Jan-21 16:30N 26°06' W 080°07'0 0.0
2019-Jan-21 16:00N 26°06' W 080°07'0 0.0
2019-Jan-21 15:30N 26°06' W 080°07'0 0.0
2019-Jan-21 15:00N 26°06' W 080°07'0 0.0
2019-Jan-21 14:30N 26°06' W 080°07'0 0.0
2019-Jan-21 14:00N 26°06' W 080°07'0 0.0
2019-Jan-21 13:30N 26°06' W 080°07'0 0.0
2019-Jan-21 12:57N 26°06' W 080°07'0 0.0
2019-Jan-21 12:27N 26°06' W 080°07'0 0.0
2019-Jan-21 11:57N 26°06' W 080°07'0 0.0
2019-Jan-21 11:30N 26°06' W 080°07'2 4.1
2019-Jan-21 11:01N 26°06' W 080°05'510.7
2019-Jan-21 10:30N 26°06' W 079°59'713.1
2019-Jan-21 10:01N 26°02' W 079°53'816.5
2019-Jan-21 09:30N 25°58' W 079°44'816.2
2019-Jan-21 09:01N 25°52' W 079°39'1019.8
2019-Jan-21 08:30N 25°42' W 079°37'1020.0
2019-Jan-21 08:01N 25°32' W 079°35'1020.2
2019-Jan-21 07:30N 25°22' W 079°33'  
2019-Jan-17 23:14N 09°43' W 079°39'819.1
2019-Jan-17 22:49N 09°37' W 079°45'517.3
2019-Jan-17 22:30N 09°33' W 079°48'815.9
2019-Jan-17 22:00N 09°28' W 079°54'612.5
2019-Jan-17 21:30N 09°21' W 079°55'4 7.5
2019-Jan-17 21:00N 09°18' W 079°55'1 2.1
2019-Jan-17 20:30N 09°17' W 079°55'0 0.4
2019-Jan-17 20:00N 09°16' W 079°55'0 0.4
2019-Jan-17 19:30N 09°16' W 079°55'0 0.9
2019-Jan-17 19:00N 09°16' W 079°55'1 1.1
2019-Jan-17 18:31N 09°15' W 079°55'1 1.5
2019-Jan-17 18:00N 09°15' W 079°55'9 7.9
2019-Jan-17 16:55N 09°09' W 079°49'  
2019-Jan-12 21:00N 12°54' W 089°54'   160 / 151011.010.8 27.023.428.0
Track history (hours):
 
Tides and Currents Weather Stations Pressure Air Temp Water Temp Dewpoint Dewpoint Depression Visibility Wind Speed Wind Dir Waves Ship Positions

Coral Princess

Operator: Princess Cruises

Last reported at 2019-Jan-21 22:31 UTC. Time now 2019-Jan-24 06:14 UTC.
Position N 26°16' W 079°26'.

Type: Passenger vessel. MMSI: 310376000.

Date/timePositionNaut miles runAvg speedWind from/ knotsBaromVisibWave heightAir tempDewpointWater temp
2019-Jan-21 22:31N 26°16' W 079°26'019.8
2019-Jan-21 22:30N 26°16' W 079°27'1020.6
2019-Jan-21 22:00N 26°13' W 079°37'1121.4
2019-Jan-21 21:30N 26°09' W 079°49'1121.3
2019-Jan-21 21:00N 26°06' W 079°60'612.0
2019-Jan-21 20:30N 26°06' W 080°07'1 1.2
2019-Jan-21 20:00N 26°06' W 080°07'0 0.0
2019-Jan-21 19:30N 26°06' W 080°07'0 0.0
2019-Jan-21 19:00N 26°06' W 080°07'0 0.0
2019-Jan-21 18:30N 26°06' W 080°07'0 0.0
2019-Jan-21 18:00N 26°06' W 080°07'0 0.0
2019-Jan-21 17:30N 26°06' W 080°07'0 0.0
2019-Jan-21 17:00N 26°06' W 080°07'0 0.0
2019-Jan-21 16:30N 26°06' W 080°07'0 0.0
2019-Jan-21 16:00N 26°06' W 080°07'0 0.0
2019-Jan-21 15:30N 26°06' W 080°07'0 0.0
2019-Jan-21 15:00N 26°06' W 080°07'0 0.0
2019-Jan-21 14:30N 26°06' W 080°07'0 0.0
2019-Jan-21 14:00N 26°06' W 080°07'0 0.0
2019-Jan-21 13:30N 26°06' W 080°07'0 0.0
2019-Jan-21 12:57N 26°06' W 080°07'0 0.0
2019-Jan-21 12:27N 26°06' W 080°07'0 0.0
2019-Jan-21 11:57N 26°06' W 080°07'0 0.0
2019-Jan-21 11:30N 26°06' W 080°07'2 4.1
2019-Jan-21 11:01N 26°06' W 080°05'510.7
2019-Jan-21 10:30N 26°06' W 079°59'713.1
2019-Jan-21 10:01N 26°02' W 079°53'816.5
2019-Jan-21 09:30N 25°58' W 079°44'816.2
2019-Jan-21 09:01N 25°52' W 079°39'1019.8
2019-Jan-21 08:30N 25°42' W 079°37'1020.0
2019-Jan-21 08:01N 25°32' W 079°35'1020.2
2019-Jan-21 07:30N 25°22' W 079°33'  
2019-Jan-17 23:14N 09°43' W 079°39'819.1
2019-Jan-17 22:49N 09°37' W 079°45'517.3
2019-Jan-17 22:30N 09°33' W 079°48'815.9
2019-Jan-17 22:00N 09°28' W 079°54'612.5
2019-Jan-17 21:30N 09°21' W 079°55'4 7.5
2019-Jan-17 21:00N 09°18' W 079°55'1 2.1
2019-Jan-17 20:30N 09°17' W 079°55'0 0.4
2019-Jan-17 20:00N 09°16' W 079°55'0 0.4
2019-Jan-17 19:30N 09°16' W 079°55'0 0.9
2019-Jan-17 19:00N 09°16' W 079°55'1 1.1
2019-Jan-17 18:31N 09°15' W 079°55'1 1.5
2019-Jan-17 18:00N 09°15' W 079°55'9 7.9
2019-Jan-17 16:55N 09°09' W 079°49'  
2019-Jan-12 21:00N 12°54' W 089°54'   160 / 151011.010.8 27.023.428.0

Dump ship's entire track history